createdAt,value
2023-04-15T00:01:34.486Z,75.60
2023-04-15T00:04:37.458Z,75.50
2023-04-15T00:07:40.279Z,75.80
2023-04-15T00:10:44.143Z,75.80
2023-04-15T00:13:46.234Z,76.40
2023-04-15T00:16:49.985Z,76.90
2023-04-15T00:19:51.664Z,77.90
2023-04-15T00:22:53.472Z,78.50
2023-04-15T00:25:55.606Z,79.30
2023-04-15T00:28:57.322Z,80.20
2023-04-15T00:31:58.874Z,81.20
2023-04-15T00:35:00.851Z,82.10
2023-04-15T00:38:02.436Z,82.90
2023-04-15T00:41:04.585Z,83.10
2023-04-15T00:44:07.044Z,83.50
2023-04-15T00:47:09.603Z,83.40
2023-04-15T00:50:12.812Z,83.10
2023-04-15T00:53:14.396Z,82.80
2023-04-15T00:56:16.040Z,83.00
2023-04-15T00:59:18.441Z,83.10
2023-04-15T01:02:20.674Z,83.10
2023-04-15T01:05:22.443Z,84.20
2023-04-15T01:08:28.488Z,84.30
2023-04-15T01:11:31.912Z,83.90
2023-04-15T01:14:33.982Z,83.40
2023-04-15T01:17:35.894Z,83.10
2023-04-15T01:20:37.597Z,83.10
2023-04-15T01:23:39.631Z,82.90
2023-04-15T01:26:42.313Z,82.90
2023-04-15T01:29:44.633Z,83.00
2023-04-15T01:32:46.537Z,82.80
2023-04-15T01:35:48.193Z,83.00
2023-04-15T01:38:50.552Z,83.20
2023-04-15T01:41:52.276Z,83.10
2023-04-15T01:44:53.956Z,82.80
2023-04-15T01:47:55.843Z,82.80
2023-04-15T01:50:58.396Z,82.70
2023-04-15T01:53:59.968Z,82.70
2023-04-15T01:57:02.111Z,82.50
2023-04-15T02:00:04.037Z,82.90
2023-04-15T02:03:06.497Z,82.70
2023-04-15T02:06:08.225Z,83.10
2023-04-15T02:09:10.557Z,83.00
2023-04-15T02:12:13.243Z,83.10
2023-04-15T02:15:15.392Z,83.20
2023-04-15T02:18:17.257Z,83.30
2023-04-15T02:21:18.970Z,83.10
2023-04-15T02:24:21.311Z,82.70
2023-04-15T02:27:23.024Z,82.70
2023-04-15T02:30:25.478Z,83.30
2023-04-15T02:33:27.117Z,83.40
2023-04-15T02:36:29.737Z,83.60
2023-04-15T02:39:31.282Z,84.10
2023-04-15T02:42:32.913Z,84.50
2023-04-15T02:45:34.758Z,85.00
2023-04-15T02:48:36.824Z,85.30
2023-04-15T02:51:38.783Z,86.30
2023-04-15T02:54:40.342Z,86.70
2023-04-15T02:57:41.999Z,87.10
2023-04-15T03:00:43.612Z,87.40
2023-04-15T03:03:45.498Z,87.20
2023-04-15T03:06:47.420Z,87.00
2023-04-15T03:09:48.970Z,87.00
2023-04-15T03:12:50.724Z,87.30
2023-04-15T03:15:52.359Z,87.40
2023-04-15T03:18:53.985Z,87.70
2023-04-15T03:21:55.551Z,87.50
2023-04-15T03:24:57.290Z,86.90
2023-04-15T03:28:00.162Z,86.90
2023-04-15T03:31:01.834Z,87.40
2023-04-15T03:34:03.431Z,87.00
2023-04-15T03:37:05.609Z,87.30
2023-04-15T03:40:08.007Z,88.10
2023-04-15T03:43:09.604Z,88.40
2023-04-15T03:46:11.248Z,88.20
2023-04-15T03:49:14.072Z,88.20
2023-04-15T03:52:15.841Z,88.40
2023-04-15T03:55:17.526Z,88.40
2023-04-15T03:58:19.112Z,88.40
2023-04-15T04:01:20.761Z,88.10
2023-04-15T04:04:22.438Z,88.50
2023-04-15T04:07:25.320Z,88.80
2023-04-15T04:10:27.071Z,88.30
2023-04-15T04:13:28.648Z,88.20
2023-04-15T04:16:30.524Z,88.30
2023-04-15T04:19:32.222Z,88.40
2023-04-15T04:22:39.077Z,88.60
2023-04-15T04:25:40.655Z,88.90
2023-04-15T04:28:42.289Z,89.10
2023-04-15T04:31:43.854Z,88.80
2023-04-15T04:34:45.486Z,89.20
2023-04-15T04:37:47.346Z,89.20
2023-04-15T04:40:49.008Z,89.30
2023-04-15T04:43:50.811Z,89.30
2023-04-15T04:46:52.490Z,89.10
2023-04-15T04:49:54.040Z,88.90
2023-04-15T04:52:55.810Z,88.80
2023-04-15T04:55:57.448Z,88.80
2023-04-15T04:58:59.153Z,88.50
2023-04-15T05:02:01.103Z,88.20
2023-04-15T05:05:02.939Z,87.90
2023-04-15T05:08:05.113Z,87.50
2023-04-15T05:11:07.259Z,87.50
2023-04-15T05:14:08.846Z,87.70
2023-04-15T05:17:11.476Z,88.10
2023-04-15T05:20:13.801Z,88.30
2023-04-15T05:23:15.853Z,88.80
2023-04-15T05:26:17.753Z,89.30
2023-04-15T05:29:19.394Z,89.80
2023-04-15T05:32:21.269Z,90.20
2023-04-15T05:35:22.951Z,90.20
2023-04-15T05:38:24.514Z,90.70
2023-04-15T05:41:26.299Z,90.80
2023-04-15T05:44:27.914Z,90.80
2023-04-15T05:47:29.488Z,90.60
2023-04-15T05:50:31.222Z,90.30
2023-04-15T05:53:32.873Z,89.80
2023-04-15T05:56:34.468Z,89.30
2023-04-15T05:59:36.153Z,88.90
2023-04-15T06:02:37.922Z,88.20
2023-04-15T06:05:40.576Z,87.70
2023-04-15T06:08:42.175Z,87.20
2023-04-15T06:11:43.809Z,86.90
2023-04-15T06:14:45.528Z,86.90
2023-04-15T06:17:47.137Z,87.20
2023-04-15T06:20:48.818Z,87.40
2023-04-15T06:23:50.590Z,87.70
2023-04-15T06:26:52.248Z,87.60
2023-04-15T06:29:53.814Z,87.20
2023-04-15T06:32:56.031Z,87.20
2023-04-15T06:35:57.757Z,87.50
2023-04-15T06:38:59.702Z,86.00
2023-04-15T06:42:01.590Z,84.70
2023-04-15T06:45:03.366Z,84.30
2023-04-15T06:48:05.788Z,83.80
2023-04-15T06:51:07.415Z,83.40
2023-04-15T06:54:09.072Z,82.40
2023-04-15T06:57:10.814Z,81.80
2023-04-15T07:00:12.871Z,82.00
2023-04-15T07:03:15.123Z,80.60
2023-04-15T07:06:17.000Z,81.40
2023-04-15T07:09:18.580Z,81.70
2023-04-15T07:12:20.704Z,82.30
2023-04-15T07:15:23.534Z,81.90
2023-04-15T07:18:25.519Z,81.10
2023-04-15T07:21:27.628Z,80.40
2023-04-15T07:24:29.256Z,77.90
2023-04-15T07:27:31.110Z,76.90
2023-04-15T07:30:33.140Z,77.10
2023-04-15T07:33:34.765Z,76.90
2023-04-15T07:36:36.871Z,77.30
2023-04-15T07:39:38.695Z,75.60
2023-04-15T07:42:41.475Z,74.50
2023-04-15T07:45:43.339Z,73.50
2023-04-15T07:48:45.191Z,71.90
2023-04-15T07:51:47.129Z,72.10
2023-04-15T07:54:48.720Z,71.10
2023-04-15T07:57:50.436Z,69.90
2023-04-15T08:00:52.163Z,69.70
2023-04-15T08:03:54.922Z,68.70
2023-04-15T08:06:56.628Z,67.90
2023-04-15T08:09:58.200Z,66.90
2023-04-15T08:12:59.930Z,67.70
2023-04-15T08:16:33.851Z,67.30
2023-04-15T08:19:35.682Z,67.50
2023-04-15T08:22:37.280Z,67.50
2023-04-15T08:25:38.852Z,67.20
2023-04-15T08:28:41.781Z,66.80
2023-04-15T08:31:43.550Z,66.00
2023-04-15T08:34:45.188Z,65.80
2023-04-15T08:37:46.791Z,65.40
2023-04-15T08:40:48.372Z,64.20
2023-04-15T08:43:56.779Z,63.60
2023-04-15T08:47:01.781Z,63.50
2023-04-15T08:50:04.741Z,63.50
2023-04-15T08:53:07.549Z,62.80
2023-04-15T08:56:10.572Z,62.90
2023-04-15T08:59:12.593Z,62.10
2023-04-15T09:02:14.364Z,61.80
2023-04-15T09:05:16.562Z,58.50
2023-04-15T09:08:18.705Z,56.80
2023-04-15T09:11:22.143Z,56.40
2023-04-15T09:14:23.790Z,56.40
2023-04-15T09:17:26.547Z,56.30
2023-04-15T09:20:28.240Z,56.90
2023-04-15T09:23:29.872Z,56.70
2023-04-15T09:26:33.839Z,56.10
2023-04-15T09:29:35.659Z,56.40
2023-04-15T09:32:57.877Z,56.60
2023-04-15T09:36:04.964Z,54.50
2023-04-15T09:39:07.005Z,54.40
2023-04-15T09:42:08.709Z,53.70
2023-04-15T09:45:13.123Z,52.50
2023-04-15T09:48:22.784Z,51.10
2023-04-15T09:51:36.567Z,50.00
2023-04-15T09:54:38.879Z,50.30
2023-04-15T09:57:49.792Z,48.50
2023-04-15T10:00:53.268Z,48.10
2023-04-15T10:03:58.069Z,46.80
2023-04-15T10:07:00.942Z,47.20
2023-04-15T10:10:04.352Z,46.20
2023-04-15T10:13:06.976Z,46.60
2023-04-15T10:16:16.806Z,46.50
2023-04-15T10:19:26.283Z,45.70
2023-04-15T10:22:28.763Z,46.50
2023-04-15T10:25:30.960Z,46.70
2023-04-15T10:28:32.715Z,45.70
2023-04-15T10:31:35.738Z,46.70
2023-04-15T10:34:38.363Z,47.10
2023-04-15T10:37:40.079Z,46.80
2023-04-15T10:40:41.979Z,45.90
2023-04-15T10:44:01.165Z,47.00
2023-04-15T10:47:10.534Z,49.00
2023-04-15T10:50:12.535Z,50.30
2023-04-15T10:53:28.410Z,51.00
2023-04-15T10:56:31.006Z,51.30
2023-04-15T10:59:36.329Z,51.70
2023-04-15T11:02:42.144Z,51.50
2023-04-15T11:05:51.798Z,51.40
2023-04-15T11:08:59.285Z,51.50
2023-04-15T11:12:10.463Z,51.90
2023-04-15T11:15:39.141Z,52.00
2023-04-15T11:18:40.821Z,51.20
2023-04-15T11:21:42.410Z,50.70
2023-04-15T11:24:51.049Z,50.70
2023-04-15T11:27:54.444Z,50.10
2023-04-15T11:30:56.851Z,49.10
2023-04-15T11:34:01.406Z,48.80
2023-04-15T11:37:06.576Z,49.30
2023-04-15T11:40:09.353Z,48.60
2023-04-15T11:43:18.470Z,49.90
2023-04-15T11:46:22.654Z,49.50
2023-04-15T11:49:31.328Z,49.40
2023-04-15T11:52:32.939Z,49.70
2023-04-15T11:55:45.041Z,48.60
2023-04-15T11:58:47.269Z,47.90
2023-04-15T12:01:49.927Z,48.70
2023-04-15T12:04:51.601Z,47.40
2023-04-15T12:08:00.726Z,44.30
2023-04-15T12:11:02.492Z,45.50
2023-04-15T12:14:16.808Z,46.00
2023-04-15T12:17:18.516Z,45.80
2023-04-15T12:20:26.416Z,46.40
2023-04-15T12:23:28.500Z,46.30
2023-04-15T12:26:48.311Z,45.50
2023-04-15T12:29:49.896Z,46.30
2023-04-15T12:32:52.270Z,46.90
2023-04-15T12:35:53.869Z,49.70
2023-04-15T12:38:55.922Z,50.50
2023-04-15T12:41:57.909Z,50.90
2023-04-15T12:44:59.458Z,52.00
2023-04-15T12:48:01.158Z,53.50
2023-04-15T12:51:05.121Z,53.80
2023-04-15T12:54:07.238Z,56.60
2023-04-15T12:57:08.985Z,60.20
2023-04-15T13:00:11.233Z,61.10
2023-04-15T13:03:13.110Z,63.60
2023-04-15T13:06:14.750Z,62.20
2023-04-15T13:09:16.442Z,63.80
2023-04-15T13:12:18.318Z,62.40
2023-04-15T13:15:22.291Z,62.50
2023-04-15T13:18:23.910Z,64.70
2023-04-15T13:21:25.572Z,66.20
2023-04-15T13:24:27.122Z,67.50
2023-04-15T13:27:28.780Z,70.10
2023-04-15T13:30:31.161Z,72.10
2023-04-15T13:33:32.777Z,72.40
2023-04-15T13:36:34.419Z,75.20
2023-04-15T13:39:36.315Z,74.20
2023-04-15T13:42:37.868Z,76.10
2023-04-15T13:45:39.550Z,77.30
2023-04-15T13:48:41.366Z,77.70
2023-04-15T13:51:43.365Z,77.50
2023-04-15T13:54:45.021Z,78.30
2023-04-15T13:57:47.654Z,78.60
2023-04-15T14:00:49.469Z,77.60
2023-04-15T14:03:51.321Z,79.00
2023-04-15T14:06:53.070Z,79.70
2023-04-15T14:09:55.455Z,76.40
2023-04-15T14:12:57.034Z,76.80
2023-04-15T14:15:58.712Z,75.70
2023-04-15T14:19:00.933Z,74.40
2023-04-15T14:22:03.347Z,74.50
2023-04-15T14:25:06.512Z,73.20
2023-04-15T14:28:08.061Z,73.30
2023-04-15T14:31:09.633Z,73.00
2023-04-15T14:34:11.587Z,73.20
2023-04-15T14:37:13.304Z,74.90
2023-04-15T14:40:15.452Z,74.90
2023-04-15T14:43:17.347Z,75.90
2023-04-15T14:46:19.159Z,76.70
2023-04-15T14:49:21.264Z,77.60
2023-04-15T14:52:23.139Z,78.50
2023-04-15T14:55:24.912Z,78.10
2023-04-15T14:58:26.605Z,77.80
2023-04-15T15:01:28.557Z,78.30
2023-04-15T15:04:30.512Z,79.10
2023-04-15T15:07:32.207Z,78.60
2023-04-15T15:10:48.298Z,79.10
2023-04-15T15:13:51.468Z,78.80
2023-04-15T15:16:53.143Z,78.70
2023-04-15T15:19:54.701Z,80.00
2023-04-15T15:22:56.686Z,80.70
2023-04-15T15:25:58.956Z,80.20
2023-04-15T15:29:00.703Z,81.40
2023-04-15T15:32:02.329Z,82.20
2023-04-15T15:35:04.119Z,82.10
2023-04-15T15:38:06.365Z,81.60
2023-04-15T15:41:08.036Z,81.80
2023-04-15T15:44:09.676Z,82.30
2023-04-15T15:47:11.738Z,82.70
2023-04-15T15:50:14.421Z,83.40
2023-04-15T15:53:20.578Z,83.90
2023-04-15T15:56:22.355Z,84.30
2023-04-15T15:59:25.424Z,84.80
2023-04-15T16:02:45.818Z,85.10
2023-04-15T16:05:48.909Z,85.80
2023-04-15T16:08:50.627Z,85.60
2023-04-15T16:11:52.248Z,84.90
2023-04-15T16:14:53.938Z,85.70
2023-04-15T16:17:55.574Z,86.10
2023-04-15T16:20:58.180Z,87.00
2023-04-15T16:23:59.783Z,86.40
2023-04-15T16:27:02.771Z,87.40
2023-04-15T16:30:04.898Z,87.10
2023-04-15T16:33:07.791Z,87.00
2023-04-15T16:36:09.538Z,87.20
2023-04-15T16:39:11.225Z,87.00
2023-04-15T16:42:12.878Z,86.90
2023-04-15T16:45:14.514Z,87.40
2023-04-15T16:48:16.362Z,88.20
2023-04-15T16:51:18.031Z,86.80
2023-04-15T16:54:19.625Z,87.60
2023-04-15T16:57:21.400Z,88.20
2023-04-15T17:00:23.022Z,88.40
2023-04-15T17:03:25.851Z,88.30
2023-04-15T17:06:27.779Z,88.10
2023-04-15T17:09:29.417Z,88.30
2023-04-15T17:12:31.741Z,89.00
2023-04-15T17:15:33.438Z,88.50
2023-04-15T17:18:35.314Z,88.90
2023-04-15T17:21:36.971Z,89.80
2023-04-15T17:24:38.589Z,90.30
2023-04-15T17:27:40.678Z,90.30
2023-04-15T17:30:42.264Z,90.20
2023-04-15T17:34:01.787Z,90.80
2023-04-15T17:37:06.235Z,91.10
2023-04-15T17:40:09.044Z,90.90
2023-04-15T17:43:10.692Z,90.90
2023-04-15T17:46:13.273Z,91.20
2023-04-15T17:49:15.005Z,91.40
2023-04-15T17:52:16.698Z,91.70
2023-04-15T17:55:18.380Z,91.30
2023-04-15T17:58:20.305Z,91.50
2023-04-15T18:01:22.284Z,91.50
2023-04-15T18:04:26.475Z,91.00
2023-04-15T18:07:28.551Z,90.50
2023-04-15T18:10:30.125Z,91.20
2023-04-15T18:13:31.728Z,91.20
2023-04-15T18:16:33.556Z,90.90
2023-04-15T18:19:35.216Z,90.50
2023-04-15T18:22:36.915Z,91.00
2023-04-15T18:25:38.664Z,91.20
2023-04-15T18:28:40.362Z,91.00
2023-04-15T18:31:42.060Z,91.20
2023-04-15T18:34:43.794Z,91.50
2023-04-15T18:37:45.403Z,91.90
2023-04-15T18:40:47.005Z,92.50
2023-04-15T18:43:48.927Z,92.80
2023-04-15T18:46:50.630Z,93.20
2023-04-15T18:49:52.229Z,93.40
2023-04-15T18:52:53.875Z,93.40
2023-04-15T18:55:56.331Z,93.60
2023-04-15T18:59:09.663Z,93.70
2023-04-15T19:02:20.014Z,93.70
2023-04-15T19:05:21.672Z,93.70
2023-04-15T19:08:23.332Z,93.70
2023-04-15T19:11:25.983Z,93.90
2023-04-15T19:14:27.745Z,93.80
2023-04-15T19:17:29.465Z,93.80
2023-04-15T19:20:31.285Z,93.90
2023-04-15T19:23:33.541Z,93.90
2023-04-15T19:26:36.748Z,94.00
2023-04-15T19:29:38.436Z,93.90
2023-04-15T19:32:40.127Z,93.70
2023-04-15T19:35:41.834Z,93.60
2023-04-15T19:38:43.918Z,93.40
2023-04-15T19:41:45.795Z,93.30
2023-04-15T19:44:47.521Z,93.20
2023-04-15T19:47:49.263Z,93.30
2023-04-15T19:50:51.252Z,93.30
2023-04-15T19:53:53.875Z,93.20
2023-04-15T19:56:55.662Z,93.10
2023-04-15T19:59:57.247Z,92.30
2023-04-15T20:03:00.879Z,92.30
2023-04-15T20:06:02.720Z,91.30
2023-04-15T20:09:04.871Z,91.00
2023-04-15T20:12:49.390Z,90.40
2023-04-15T20:15:28.733Z,90.10
2023-04-15T20:18:30.680Z,90.60
2023-04-15T20:21:32.314Z,90.40
2023-04-15T20:24:34.109Z,90.10
2023-04-15T20:27:35.712Z,90.00
2023-04-15T20:30:39.336Z,89.80
2023-04-15T20:33:40.907Z,89.60
2023-04-15T20:36:43.267Z,89.10
2023-04-15T20:39:44.928Z,88.70
2023-04-15T20:42:46.558Z,88.90
2023-04-15T20:45:50.145Z,88.90
2023-04-15T20:48:51.763Z,88.30
2023-04-15T20:51:53.340Z,88.40
2023-04-15T20:54:55.564Z,88.50
2023-04-15T20:57:59.156Z,88.80
2023-04-15T21:01:02.144Z,88.70
2023-04-15T21:04:03.995Z,88.70
2023-04-15T21:07:05.831Z,88.70
2023-04-15T21:10:07.711Z,88.70
2023-04-15T21:13:09.355Z,88.90
2023-04-15T21:16:10.983Z,88.70
2023-04-15T21:19:12.594Z,88.90
2023-04-15T21:22:14.400Z,89.00
2023-04-15T21:25:16.151Z,89.20
2023-04-15T21:28:17.754Z,89.20
2023-04-15T21:31:20.705Z,89.00
2023-04-15T21:34:22.325Z,88.60
2023-04-15T21:37:24.014Z,89.00
2023-04-15T21:40:25.732Z,88.80
2023-04-15T21:43:27.720Z,88.60
2023-04-15T21:46:32.784Z,88.60
2023-04-15T21:49:35.027Z,88.00
2023-04-15T21:52:36.593Z,88.30
2023-04-15T21:55:38.176Z,88.10
2023-04-15T21:58:39.833Z,88.00
2023-04-15T22:01:41.464Z,87.80
2023-04-15T22:04:43.158Z,87.90
2023-04-15T22:07:44.844Z,87.90
2023-04-15T22:10:46.488Z,87.80
2023-04-15T22:13:48.102Z,88.10
2023-04-15T22:16:49.662Z,87.90
2023-04-15T22:19:51.353Z,87.90
2023-04-15T22:22:54.284Z,88.00
2023-04-15T22:25:56.412Z,88.20
2023-04-15T22:28:58.010Z,88.10
2023-04-15T22:31:59.692Z,88.10
2023-04-15T22:35:01.722Z,88.10
2023-04-15T22:38:04.140Z,88.30
2023-04-15T22:41:06.011Z,88.40
2023-04-15T22:44:07.642Z,88.50
2023-04-15T22:47:09.197Z,87.90
2023-04-15T22:50:11.048Z,87.90
2023-04-15T22:53:12.745Z,87.60
2023-04-15T22:56:14.329Z,87.90
2023-04-15T22:59:15.979Z,87.50
2023-04-15T23:02:17.872Z,87.80
2023-04-15T23:05:19.813Z,87.80
2023-04-15T23:08:23.704Z,87.80
2023-04-15T23:11:25.425Z,87.40
2023-04-15T23:14:28.148Z,87.40
2023-04-15T23:17:29.776Z,87.30
2023-04-15T23:20:31.382Z,86.80
2023-04-15T23:23:32.987Z,87.30
2023-04-15T23:26:34.560Z,87.50
2023-04-15T23:29:36.319Z,87.50
2023-04-15T23:32:37.917Z,88.10
2023-04-15T23:35:39.591Z,88.10
2023-04-15T23:38:42.078Z,88.50
2023-04-15T23:41:43.706Z,88.50
2023-04-15T23:44:45.343Z,88.70
2023-04-15T23:47:46.978Z,88.90
2023-04-15T23:50:48.566Z,89.00
2023-04-15T23:53:52.221Z,89.20
2023-04-15T23:56:53.829Z,88.90
2023-04-15T23:59:55.600Z,89.00
